Time;durP1;ratioP1;P1;durP2;ratioP2;P2;SDS_P1;SDS_P2;PMS_P1;PMS_P2;Temp;Humidity;BMP_temperature;BMP_pressure;BME280_temperature;BME280_humidity;BME280_pressure;Samples;Min_cycle;Max_cycle;Signal;HPM_P1;HPM_P2
2022/10/25 00:01:29;;;;;;;6.80;1.90;;;;;13.00;100720.00;;;;10288982;28;20192;-75
2022/10/25 00:06:31;;;;;;;8.07;2.03;;;;;13.00;100725.00;;;;10316420;28;20215;-75
2022/10/25 00:11:34;;;;;;;8.80;2.20;;;;;13.10;100724.00;;;;10309509;28;20215;-75
2022/10/25 00:16:37;;;;;;;7.23;2.10;;;;;13.10;100727.00;;;;10273490;28;20196;-75
2022/10/25 00:21:39;;;;;;;8.17;1.80;;;;;13.00;100712.00;;;;10308906;28;20241;-75
2022/10/25 00:26:41;;;;;;;3.10;1.50;;;;;13.00;100717.00;;;;10284115;28;20563;-75
2022/10/25 00:31:44;;;;;;;6.47;1.63;;;;;13.00;100714.00;;;;10293262;28;20706;-75
2022/10/25 00:36:46;;;;;;;10.63;1.90;;;;;13.00;100715.00;;;;10285337;28;20192;-75
2022/10/25 00:41:47;;;;;;;8.20;1.37;;;;;13.00;100715.00;;;;10306715;28;20248;-75
2022/10/25 00:46:50;;;;;;;4.67;1.50;;;;;13.00;100719.00;;;;10274817;28;20710;-75
2022/10/25 00:51:57;;;;;;;6.73;1.20;;;;;13.00;100727.00;;;;10319640;28;20591;-75
2022/10/25 00:57:07;;;;;;;4.63;1.23;;;;;13.10;100738.00;;;;10287793;28;20312;-75
2022/10/25 01:02:10;;;;;;;7.10;1.77;;;;;13.10;100736.00;;;;10303645;28;20192;-75
2022/10/25 01:07:12;;;;;;;6.03;1.67;;;;;13.10;100746.00;;;;10292378;28;20223;-75
2022/10/25 01:12:14;;;;;;;5.70;1.90;;;;;13.10;100748.00;;;;10300915;28;20659;-75
2022/10/25 01:17:31;;;;;;;7.10;1.33;;;;;13.20;100761.00;;;;10307707;28;20204;-75
2022/10/25 01:22:42;;;;;;;5.53;2.27;;;;;13.10;100760.00;;;;10329215;28;20222;-75
2022/10/25 01:27:47;;;;;;;8.03;1.40;;;;;13.10;100769.00;;;;10340837;28;20200;-75
2022/10/25 01:33:19;;;;;;;6.50;1.67;;;;;13.00;100761.00;;;;10302734;28;20624;-75
2022/10/25 01:38:28;;;;;;;6.80;1.90;;;;;13.10;100781.00;;;;10329053;28;20255;-75
2022/10/25 01:43:41;;;;;;;6.20;1.53;;;;;13.00;100770.00;;;;10326693;28;20198;-75
2022/10/25 01:48:53;;;;;;;4.13;1.63;;;;;13.00;100770.00;;;;10307206;28;20287;-75
2022/10/25 01:53:55;;;;;;;5.73;1.80;;;;;13.00;100765.00;;;;10292890;28;20228;-75
2022/10/25 01:59:08;;;;;;;6.17;1.73;;;;;13.10;100772.00;;;;10306158;28;20199;-75
2022/10/25 02:04:26;;;;;;;7.17;1.40;;;;;13.10;100770.00;;;;10295425;28;20217;-75
2022/10/25 02:09:43;;;;;;;7.30;2.00;;;;;13.10;100791.00;;;;10300049;28;20698;-75
2022/10/25 02:15:06;;;;;;;7.53;1.77;;;;;13.10;100787.00;;;;10309589;28;20231;-75
2022/10/25 02:20:11;;;;;;;6.37;2.00;;;;;13.20;100793.00;;;;10285647;28;20185;-75
2022/10/25 02:25:13;;;;;;;3.90;1.23;;;;;13.20;100780.00;;;;10304644;28;20668;-75
2022/10/25 02:30:15;;;;;;;8.60;2.23;;;;;13.20;100776.00;;;;10315766;28;20232;-75
2022/10/25 02:35:18;;;;;;;6.07;1.70;;;;;13.10;100797.00;;;;10299396;28;20203;-75
2022/10/25 02:40:20;;;;;;;10.20;3.97;;;;;13.10;100792.00;;;;10291472;28;20613;-75
2022/10/25 02:45:22;;;;;;;5.67;1.33;;;;;13.10;100797.00;;;;10263939;28;20192;-75
2022/10/25 02:50:24;;;;;;;6.93;1.63;;;;;13.10;100802.00;;;;10313052;28;20216;-75
2022/10/25 02:55:26;;;;;;;8.83;1.80;;;;;13.10;100795.00;;;;10324533;28;20212;-75
2022/10/25 03:00:28;;;;;;;4.43;1.63;;;;;13.20;100804.00;;;;10278883;28;20191;-75
2022/10/25 03:05:30;;;;;;;8.30;2.23;;;;;13.20;100806.00;;;;10287928;28;20717;-75
2022/10/25 03:10:35;;;;;;;4.60;1.53;;;;;13.20;100816.00;;;;10310675;28;20216;-75
2022/10/25 03:15:37;;;;;;;5.73;2.10;;;;;13.10;100822.00;;;;10287525;28;20566;-75
2022/10/25 03:20:40;;;;;;;7.17;1.80;;;;;13.10;100830.00;;;;10284848;28;20195;-75
2022/10/25 03:25:42;;;;;;;4.97;1.70;;;;;13.00;100828.00;;;;10317825;28;20591;-75
2022/10/25 03:30:44;;;;;;;6.83;1.53;;;;;13.00;100821.00;;;;10306972;28;20251;-75
2022/10/25 03:35:49;;;;;;;6.63;1.73;;;;;12.90;100830.00;;;;10319491;28;20195;-75
2022/10/25 03:40:52;;;;;;;6.27;1.70;;;;;12.90;100836.00;;;;10285350;28;20192;-75
2022/10/25 03:45:54;;;;;;;6.63;2.30;;;;;12.90;100837.00;;;;10313839;28;20655;-75
2022/10/25 03:50:56;;;;;;;9.53;2.23;;;;;12.90;100850.00;;;;10289837;28;20224;-75
2022/10/25 03:55:58;;;;;;;3.53;1.93;;;;;12.80;100844.00;;;;10313993;28;20208;-75
2022/10/25 04:01:00;;;;;;;8.43;2.47;;;;;12.70;100855.00;;;;10281990;28;20219;-75
2022/10/25 04:06:02;;;;;;;4.93;2.20;;;;;12.70;100849.00;;;;10278790;28;20299;-75
2022/10/25 04:11:04;;;;;;;8.03;2.47;;;;;12.70;100853.00;;;;10285002;28;20223;-75
2022/10/25 04:16:09;;;;;;;6.17;2.57;;;;;12.70;100862.00;;;;10270177;28;20184;-75
2022/10/25 04:21:11;;;;;;;6.70;2.83;;;;;12.70;100877.00;;;;10283110;28;20199;-75
2022/10/25 04:26:16;;;;;;;7.53;2.60;;;;;12.80;100868.00;;;;10301580;28;20192;-75
2022/10/25 04:31:18;;;;;;;8.63;3.00;;;;;12.80;100876.00;;;;10277956;28;20230;-75
2022/10/25 04:36:22;;;;;;;11.90;3.27;;;;;12.90;100880.00;;;;10267313;28;20188;-75
2022/10/25 04:41:23;;;;;;;9.90;2.87;;;;;12.80;100882.00;;;;10306476;28;20184;-75
2022/10/25 04:46:26;;;;;;;8.60;3.10;;;;;12.90;100891.00;;;;10276965;28;20185;-75
2022/10/25 04:51:28;;;;;;;7.97;2.40;;;;;12.90;100896.00;;;;10275485;28;20212;-75
2022/10/25 04:56:31;;;;;;;9.80;3.60;;;;;13.00;100902.00;;;;10281671;28;20214;-75
2022/10/25 05:01:32;;;;;;;6.93;3.07;;;;;13.00;100893.00;;;;10313693;28;20663;-75
2022/10/25 05:06:34;;;;;;;9.50;2.83;;;;;13.00;100898.00;;;;10315248;28;20322;-75
2022/10/25 05:11:36;;;;;;;9.93;3.40;;;;;12.90;100900.00;;;;10309106;28;20220;-75
2022/10/25 05:16:38;;;;;;;7.83;2.90;;;;;12.90;100919.00;;;;10288128;28;20188;-75
2022/10/25 05:21:40;;;;;;;8.83;3.60;;;;;13.00;100908.00;;;;10307299;28;20252;-75
2022/10/25 05:26:42;;;;;;;8.63;2.93;;;;;12.90;100918.00;;;;10318309;28;20195;-75
2022/10/25 05:31:44;;;;;;;10.37;3.13;;;;;12.90;100924.00;;;;10306188;28;20230;-75
2022/10/25 05:36:46;;;;;;;6.77;2.73;;;;;13.00;100918.00;;;;10310683;28;20251;-75
2022/10/25 05:41:48;;;;;;;5.47;2.90;;;;;13.00;100938.00;;;;10284919;28;20196;-75
2022/10/25 05:46:50;;;;;;;11.07;2.93;;;;;12.90;100943.00;;;;10332098;28;20223;-75
2022/10/25 05:51:52;;;;;;;6.60;2.73;;;;;12.90;100940.00;;;;10338574;28;20228;-75
2022/10/25 05:56:54;;;;;;;8.33;3.03;;;;;13.00;100945.00;;;;10294141;28;20307;-75
2022/10/25 06:01:56;;;;;;;9.63;3.10;;;;;13.00;100948.00;;;;10317147;28;20201;-75
2022/10/25 06:06:58;;;;;;;6.23;2.73;;;;;13.00;100946.00;;;;10302081;28;20207;-75
2022/10/25 06:12:00;;;;;;;8.37;3.47;;;;;13.00;100950.00;;;;10315372;28;20203;-75
2022/10/25 06:17:04;;;;;;;11.37;3.80;;;;;13.10;100951.00;;;;10311695;28;20247;-75
2022/10/25 06:22:06;;;;;;;10.70;4.07;;;;;13.10;100957.00;;;;10300242;28;20193;-75
2022/10/25 06:27:08;;;;;;;17.67;3.70;;;;;13.10;100963.00;;;;10314620;28;20760;-75
2022/10/25 06:32:10;;;;;;;8.03;2.73;;;;;13.20;100963.00;;;;10303206;28;20212;-75
2022/10/25 06:37:14;;;;;;;6.00;2.77;;;;;13.30;100975.00;;;;10274638;28;20250;-75
2022/10/25 06:42:16;;;;;;;6.10;2.77;;;;;13.30;100978.00;;;;10321135;28;20195;-75
2022/10/25 06:47:17;;;;;;;8.57;2.87;;;;;13.20;100979.00;;;;10301418;28;20201;-75
2022/10/25 06:52:19;;;;;;;5.03;2.57;;;;;13.30;100985.00;;;;10268557;28;20220;-75
2022/10/25 06:57:21;;;;;;;8.17;2.17;;;;;13.30;100984.00;;;;10302266;28;20228;-75
2022/10/25 07:02:23;;;;;;;12.87;2.07;;;;;13.30;100982.00;;;;10274806;28;20189;-75
2022/10/25 07:07:25;;;;;;;4.43;1.60;;;;;13.50;100998.00;;;;10303983;28;20212;-75
2022/10/25 07:12:28;;;;;;;7.90;2.70;;;;;13.70;101000.00;;;;10294399;28;20248;-75
2022/10/25 07:17:30;;;;;;;7.93;2.63;;;;;14.00;100999.00;;;;10281332;28;20198;-75
2022/10/25 07:22:32;;;;;;;5.40;1.93;;;;;14.10;100997.00;;;;10324333;28;20199;-75
2022/10/25 07:27:34;;;;;;;6.13;2.13;;;;;14.20;101000.00;;;;10265427;28;20196;-75
2022/10/25 07:32:36;;;;;;;6.10;2.00;;;;;14.10;101006.00;;;;10316281;28;20216;-75
2022/10/25 07:37:43;;;;;;;7.80;2.03;;;;;14.10;101016.00;;;;10304386;28;21381;-76
2022/10/25 07:42:48;;;;;;;11.50;2.03;;;;;14.10;101017.00;;;;10310481;28;20191;-75
2022/10/25 07:47:51;;;;;;;10.63;1.97;;;;;14.20;101028.00;;;;10305454;28;20197;-75
2022/10/25 07:52:54;;;;;;;14.47;2.73;;;;;14.30;101026.00;;;;10295795;28;20752;-75
2022/10/25 07:58:00;;;;;;;9.83;1.90;;;;;14.50;101016.00;;;;10282197;28;20192;-75
2022/10/25 08:03:02;;;;;;;5.90;1.58;;;;;14.40;101021.00;;;;10280846;28;20197;-75
2022/10/25 08:08:05;;;;;;;12.13;1.63;;;;;14.40;101029.00;;;;10294639;28;20427;-75
2022/10/25 08:13:06;;;;;;;3.60;1.60;;;;;14.60;101034.00;;;;10304055;28;20212;-75
2022/10/25 08:18:08;;;;;;;9.83;1.87;;;;;14.50;101033.00;;;;10336229;28;20229;-75
2022/10/25 08:23:11;;;;;;;13.00;2.40;;;;;14.70;101030.00;;;;10309186;28;20242;-75
2022/10/25 08:28:13;;;;;;;7.85;2.28;;;;;14.90;101029.00;;;;10274962;28;20201;-75
2022/10/25 08:33:18;;;;;;;9.10;3.13;;;;;15.30;101033.00;;;;10313813;28;20184;-75
2022/10/25 08:38:20;;;;;;;10.23;1.73;;;;;15.70;101038.00;;;;10294083;28;20550;-75
2022/10/25 08:43:43;;;;;;;10.40;2.35;;;;;16.20;101047.00;;;;10287877;28;20207;-76
2022/10/25 08:48:51;;;;;;;6.80;2.50;;;;;16.40;101047.00;;;;10316337;28;20238;-75
2022/10/25 08:53:57;;;;;;;5.55;2.38;;;;;16.60;101046.00;;;;10306949;28;20211;-75
2022/10/25 08:59:01;;;;;;;6.38;1.63;;;;;16.80;101057.00;;;;10284076;28;20663;-75
2022/10/25 09:04:03;;;;;;;7.00;1.95;;;;;17.00;101063.00;;;;10301828;28;20276;-75
2022/10/25 09:09:26;;;;;;;6.80;1.65;;;;;17.20;101084.00;;;;10303156;28;20746;-76
2022/10/25 09:14:57;;;;;;;4.75;1.55;;;;;17.10;101087.00;;;;10305741;28;20192;-75
2022/10/25 09:20:05;;;;;;;7.93;2.00;;;;;16.90;101076.00;;;;10267732;28;20197;-76
2022/10/25 09:25:31;;;;;;;10.38;3.38;;;;;17.40;101088.00;;;;10329888;28;20185;-75
2022/10/25 09:30:40;;;;;;;5.22;1.83;;;;;17.40;101088.00;;;;10290789;28;20701;-76
2022/10/25 09:35:52;;;;;;;5.60;2.05;;;;;17.90;101108.00;;;;10279054;28;20709;-76
2022/10/25 09:41:03;;;;;;;9.52;2.53;;;;;18.20;101112.00;;;;10309941;28;20191;-76
2022/10/25 09:46:12;;;;;;;4.55;1.92;;;;;18.90;101107.00;;;;10292717;28;20196;-76
2022/10/25 09:51:42;;;;;;;6.60;2.00;;;;;18.50;101119.00;;;;10312616;28;20220;-76
2022/10/25 09:56:44;;;;;;;8.50;2.13;;;;;18.50;101122.00;;;;10276585;28;20216;-75
2022/10/25 10:01:46;;;;;;;14.32;3.28;;;;;18.50;101114.00;;;;10319973;28;20188;-76
2022/10/25 10:06:51;;;;;;;8.77;2.67;;;;;18.20;101114.00;;;;10297430;28;20230;-76
2022/10/25 10:11:53;;;;;;;7.78;2.63;;;;;17.90;101121.00;;;;10337210;28;20223;-76
2022/10/25 10:16:56;;;;;;;8.20;2.38;;;;;17.90;101113.00;;;;10319651;28;20655;-76
2022/10/25 10:22:07;;;;;;;7.13;2.40;;;;;17.80;101117.00;;;;10293092;28;20184;-76
2022/10/25 10:27:23;;;;;;;7.40;2.15;;;;;18.20;101115.00;;;;10292446;28;20659;-76
2022/10/25 10:32:30;;;;;;;5.78;2.00;;;;;18.40;101124.00;;;;10303979;28;20231;-75
2022/10/25 10:37:33;;;;;;;10.02;2.00;;;;;18.20;101114.00;;;;10291040;28;20678;-76
2022/10/25 10:42:37;;;;;;;8.68;1.70;;;;;18.30;101113.00;;;;10315024;28;20649;-76
2022/10/25 10:47:49;;;;;;;7.97;2.03;;;;;18.50;101121.00;;;;10321718;28;20192;-75
2022/10/25 10:53:03;;;;;;;4.88;1.50;;;;;18.40;101112.00;;;;10301031;28;20231;-75
2022/10/25 10:58:14;;;;;;;5.70;1.13;;;;;19.00;101110.00;;;;10305251;28;20198;-75
2022/10/25 11:03:40;;;;;;;7.13;2.05;;;;;19.90;101123.00;;;;10279394;28;20216;-75
2022/10/25 11:09:16;;;;;;;4.45;1.42;;;;;19.80;101124.00;;;;10322126;28;20305;-75
2022/10/25 11:14:19;;;;;;;5.80;1.40;;;;;19.10;101131.00;;;;10316927;28;20687;-75
2022/10/25 11:19:33;;;;;;;6.07;1.50;;;;;18.90;101120.00;;;;10311482;28;20666;-75
2022/10/25 11:24:53;;;;;;;4.63;0.93;;;;;20.40;101115.00;;;;10273362;28;20671;-76
2022/10/25 11:30:08;;;;;;;2.90;1.25;;;;;21.50;101119.00;;;;10318770;28;20212;-76
2022/10/25 11:35:25;;;;;;;4.72;1.05;;;;;21.30;101125.00;;;;10289343;28;20187;-76
2022/10/25 11:40:31;;;;;;;5.07;1.38;;;;;20.90;101120.00;;;;10299043;28;20192;-75
2022/10/25 11:45:45;;;;;;;3.83;1.45;;;;;20.50;101113.00;;;;10297167;28;20192;-76
2022/10/25 11:50:50;;;;;;;7.97;1.40;;;;;20.70;101112.00;;;;10287650;28;20248;-76
2022/10/25 11:56:01;;;;;;;3.38;1.10;;;;;20.10;101107.00;;;;10318921;28;20211;-75
2022/10/25 12:01:33;;;;;;;4.47;1.30;;;;;20.40;101113.00;;;;10300403;28;20180;-76
2022/10/25 12:06:54;;;;;;;4.57;1.25;;;;;19.80;101107.00;;;;10285716;28;20229;-75
2022/10/25 12:12:05;;;;;;;4.57;1.13;;;;;19.00;101103.00;;;;10308274;28;20207;-75
2022/10/25 12:17:18;;;;;;;7.40;1.27;;;;;19.10;101100.00;;;;10326749;28;20188;-75
2022/10/25 12:22:24;;;;;;;4.82;1.05;;;;;18.60;101088.00;;;;10314539;28;20228;-75
2022/10/25 12:27:28;;;;;;;6.88;1.13;;;;;18.50;101092.00;;;;10301722;28;20270;-75
2022/10/25 12:32:42;;;;;;;3.70;1.30;;;;;18.80;101086.00;;;;10281412;28;20216;-75
2022/10/25 12:37:50;;;;;;;6.80;1.48;;;;;19.60;101090.00;;;;10311577;28;20197;-75
2022/10/25 12:43:15;;;;;;;6.43;1.33;;;;;18.80;101088.00;;;;10281926;28;20199;-74
2022/10/25 12:48:20;;;;;;;6.13;0.98;;;;;19.40;101087.00;;;;10313080;28;20187;-74
2022/10/25 12:53:37;;;;;;;6.07;1.50;;;;;18.90;101079.00;;;;10272654;28;20239;-74
2022/10/25 12:59:20;;;;;;;5.30;1.67;;;;;18.50;101078.00;;;;10327049;28;20203;-74
2022/10/25 13:04:49;;;;;;;3.13;1.25;;;;;19.60;101076.00;;;;10283783;28;20681;-74
2022/10/25 13:09:51;;;;;;;10.10;1.92;;;;;19.80;101064.00;;;;10308942;28;20307;-74
2022/10/25 13:14:55;;;;;;;5.60;1.38;;;;;19.10;101070.00;;;;10316786;28;20196;-74
2022/10/25 13:20:21;;;;;;;3.90;1.67;;;;;18.80;101076.00;;;;10306493;28;20197;-74
2022/10/25 13:25:29;;;;;;;3.28;1.33;;;;;18.60;101065.00;;;;10298311;28;20714;-74
2022/10/25 13:30:31;;;;;;;3.42;1.40;;;;;18.30;101061.00;;;;10335134;28;20222;-74
2022/10/25 13:35:36;;;;;;;3.95;1.30;;;;;18.50;101061.00;;;;10276635;28;20184;-74
2022/10/25 13:40:38;;;;;;;4.82;1.30;;;;;18.50;101066.00;;;;10289704;28;20197;-74
2022/10/25 13:45:43;;;;;;;4.07;1.00;;;;;18.90;101061.00;;;;10311664;28;20202;-74
2022/10/25 13:50:52;;;;;;;5.63;1.67;;;;;19.10;101053.00;;;;10289722;28;20223;-74
2022/10/25 13:56:03;;;;;;;3.20;1.65;;;;;18.60;101055.00;;;;10320512;28;20219;-74
2022/10/25 14:01:13;;;;;;;4.20;1.30;;;;;18.10;101040.00;;;;10332903;28;20189;-74
2022/10/25 14:06:36;;;;;;;4.82;1.20;;;;;18.80;101036.00;;;;10318519;28;20212;-74
2022/10/25 14:11:47;;;;;;;4.07;1.50;;;;;18.90;101030.00;;;;10300057;28;20215;-74
2022/10/25 14:17:11;;;;;;;0.98;0.63;;;;;20.40;101021.00;;;;10299109;28;20200;-74
2022/10/25 14:22:29;;;;;;;4.25;1.45;;;;;19.70;101030.00;;;;10324765;28;20203;-74
2022/10/25 14:27:35;;;;;;;4.88;0.98;;;;;19.30;101020.00;;;;10290050;28;20188;-74
2022/10/25 14:32:37;;;;;;;3.40;1.10;;;;;18.30;101025.00;;;;10311174;28;20230;-74
2022/10/25 14:37:41;;;;;;;3.50;0.65;;;;;17.90;101027.00;;;;10319659;28;20222;-74
2022/10/25 14:42:43;;;;;;;4.00;1.10;;;;;20.70;100956.00;;;;10273079;28;20201;-74
2022/10/25 14:47:46;;;;;;;3.40;1.17;;;;;20.90;100985.00;;;;10299629;28;20201;-74
2022/10/25 14:52:49;;;;;;;2.83;1.08;;;;;19.80;101015.00;;;;10321054;28;20216;-74
2022/10/25 14:57:52;;;;;;;5.18;1.00;;;;;18.80;101009.00;;;;10329906;28;20196;-74
2022/10/25 15:03:04;;;;;;;3.15;0.88;;;;;17.90;101008.00;;;;10342904;28;20207;-74
2022/10/25 15:08:20;;;;;;;2.83;1.10;;;;;17.60;101005.00;;;;10298093;28;20212;-74
2022/10/25 15:13:37;;;;;;;4.60;1.17;;;;;17.20;101015.00;;;;10317818;28;20223;-74
2022/10/25 15:18:39;;;;;;;2.75;1.02;;;;;16.90;101009.00;;;;10291188;28;20219;-74
2022/10/25 15:23:43;;;;;;;6.93;1.30;;;;;16.70;101004.00;;;;10279683;28;20188;-74
2022/10/25 15:28:51;;;;;;;2.83;1.00;;;;;16.60;100997.00;;;;10303474;28;20199;-74
2022/10/25 15:34:02;;;;;;;4.00;1.02;;;;;16.30;101003.00;;;;10269852;28;20224;-74
2022/10/25 15:39:25;;;;;;;2.70;0.93;;;;;16.10;100998.00;;;;10299116;28;20188;-74
2022/10/25 15:44:27;;;;;;;1.48;0.80;;;;;15.90;100986.00;;;;10311364;28;20200;-74
2022/10/25 15:49:29;;;;;;;4.20;1.05;;;;;15.70;100990.00;;;;10292167;28;20836;-74
2022/10/25 15:54:36;;;;;;;1.17;0.73;;;;;15.60;100984.00;;;;10308155;28;20279;-74
2022/10/25 15:59:38;;;;;;;3.10;0.85;;;;;15.40;100977.00;;;;10335875;28;20570;-74
2022/10/25 16:04:40;;;;;;;2.20;1.00;;;;;15.30;100982.00;;;;10309778;28;20237;-74
2022/10/25 16:09:42;;;;;;;6.28;1.17;;;;;15.10;100984.00;;;;10291961;28;20212;-74
2022/10/25 16:14:44;;;;;;;4.68;1.00;;;;;15.00;100977.00;;;;10286047;28;20730;-74
2022/10/25 16:19:46;;;;;;;3.63;1.20;;;;;14.80;100971.00;;;;10286876;28;20189;-74
2022/10/25 16:24:48;;;;;;;4.25;1.15;;;;;14.60;100969.00;;;;10307016;28;20191;-74
2022/10/25 16:29:50;;;;;;;3.58;1.40;;;;;14.40;100959.00;;;;10330906;28;20265;-74
2022/10/25 16:34:52;;;;;;;5.90;1.87;;;;;14.30;100956.00;;;;10284586;28;20193;-74
2022/10/25 16:39:54;;;;;;;4.70;1.37;;;;;14.10;100946.00;;;;10285129;28;20192;-74
2022/10/25 16:44:57;;;;;;;3.97;1.60;;;;;14.00;100952.00;;;;10337907;28;20207;-74
2022/10/25 16:49:59;;;;;;;5.80;1.60;;;;;13.90;100952.00;;;;10327739;28;20236;-74
2022/10/25 16:55:00;;;;;;;3.13;1.40;;;;;13.80;100952.00;;;;10324346;28;20208;-74
2022/10/25 17:00:03;;;;;;;5.33;1.50;;;;;13.70;100945.00;;;;10309354;28;20192;-74
2022/10/25 17:05:08;;;;;;;3.20;1.50;;;;;13.70;100947.00;;;;10300189;28;20601;-74
2022/10/25 17:10:15;;;;;;;5.07;2.30;;;;;13.60;100945.00;;;;10287730;28;20208;-74
2022/10/25 17:15:17;;;;;;;7.77;2.03;;;;;13.60;100938.00;;;;10302610;28;20192;-74
2022/10/25 17:20:19;;;;;;;4.50;1.80;;;;;13.40;100926.00;;;;10313253;28;20189;-74
2022/10/25 17:25:22;;;;;;;3.83;1.93;;;;;13.40;100936.00;;;;10284649;28;20602;-74
2022/10/25 17:30:23;;;;;;;2.50;1.40;;;;;13.30;100933.00;;;;10303061;28;20234;-74
2022/10/25 17:35:26;;;;;;;3.03;2.00;;;;;13.20;100935.00;;;;10314163;28;20188;-74
2022/10/25 17:40:30;;;;;;;3.00;1.70;;;;;13.20;100929.00;;;;10319116;28;20604;-74
2022/10/25 17:45:32;;;;;;;3.10;2.13;;;;;13.20;100933.00;;;;10314353;28;20662;-74
2022/10/25 17:50:35;;;;;;;6.77;1.90;;;;;13.10;100926.00;;;;10327649;28;20370;-74
2022/10/25 17:55:38;;;;;;;6.20;1.97;;;;;13.10;100932.00;;;;10323194;28;20201;-74
2022/10/25 18:00:42;;;;;;;7.27;1.70;;;;;13.10;100929.00;;;;10308372;28;20188;-74
2022/10/25 18:05:43;;;;;;;7.67;2.30;;;;;13.10;100925.00;;;;10305772;28;20223;-74
2022/10/25 18:10:45;;;;;;;6.70;2.23;;;;;13.00;100923.00;;;;10303261;28;20694;-74
2022/10/25 18:15:50;;;;;;;9.63;2.30;;;;;13.00;100921.00;;;;10305667;28;20200;-74
2022/10/25 18:20:52;;;;;;;5.10;2.57;;;;;13.00;100914.00;;;;10288052;28;20196;-74
2022/10/25 18:25:53;;;;;;;6.93;2.20;;;;;12.80;100914.00;;;;10309659;28;20200;-74
2022/10/25 18:31:05;;;;;;;9.97;2.40;;;;;12.70;100909.00;;;;10326964;28;20215;-74
2022/10/25 18:36:10;;;;;;;5.63;2.00;;;;;12.60;100919.00;;;;10318587;28;20554;-74
2022/10/25 18:41:15;;;;;;;6.80;2.20;;;;;12.50;100919.00;;;;10305173;28;20192;-74
2022/10/25 18:46:17;;;;;;;5.90;2.07;;;;;12.50;100908.00;;;;10314202;28;20204;-74
2022/10/25 18:51:21;;;;;;;6.27;2.10;;;;;12.50;100917.00;;;;10340128;28;20227;-74
2022/10/25 18:56:23;;;;;;;5.97;2.47;;;;;12.40;100895.00;;;;10297054;28;20674;-74
2022/10/25 19:01:30;;;;;;;8.73;3.20;;;;;12.30;100885.00;;;;10286025;28;20278;-74
2022/10/25 19:06:33;;;;;;;6.70;2.70;;;;;12.30;100885.00;;;;10289607;28;20224;-74
2022/10/25 19:11:35;;;;;;;4.13;2.00;;;;;12.20;100883.00;;;;10294789;28;20318;-74
2022/10/25 19:16:39;;;;;;;5.73;2.00;;;;;12.10;100883.00;;;;10273832;28;20193;-74
2022/10/25 19:21:41;;;;;;;7.40;3.10;;;;;12.00;100868.00;;;;10292462;28;20987;-74
2022/10/25 19:26:43;;;;;;;6.70;2.60;;;;;12.00;100860.00;;;;10306386;28;20207;-74
2022/10/25 19:31:45;;;;;;;5.00;2.20;;;;;12.10;100869.00;;;;10287627;28;20221;-74
2022/10/25 19:36:47;;;;;;;6.00;2.87;;;;;12.00;100855.00;;;;10273543;28;20211;-74
2022/10/25 19:41:49;;;;;;;9.63;3.00;;;;;12.00;100846.00;;;;10297032;28;20276;-74
2022/10/25 19:46:51;;;;;;;8.83;3.03;;;;;11.90;100851.00;;;;10327652;28;20219;-74
2022/10/25 19:51:53;;;;;;;5.40;2.90;;;;;11.80;100843.00;;;;10300573;28;20212;-74
2022/10/25 19:56:55;;;;;;;8.23;2.80;;;;;11.80;100833.00;;;;10305295;28;20235;-74
2022/10/25 20:01:57;;;;;;;6.07;3.33;;;;;11.70;100848.00;;;;10279146;28;20674;-74
2022/10/25 20:06:59;;;;;;;3.87;2.67;;;;;11.70;100830.00;;;;10306655;28;20220;-74
2022/10/25 20:12:01;;;;;;;6.97;3.17;;;;;11.60;100832.00;;;;10310248;28;20205;-74
2022/10/25 20:17:04;;;;;;;6.80;3.47;;;;;11.60;100822.00;;;;10312543;28;20674;-74
2022/10/25 20:22:06;;;;;;;7.00;3.10;;;;;11.60;100824.00;;;;10326463;28;20185;-74
2022/10/25 20:27:08;;;;;;;8.97;3.00;;;;;11.80;100823.00;;;;10274436;28;20682;-74
2022/10/25 20:32:11;;;;;;;5.27;3.20;;;;;11.90;100813.00;;;;10283229;28;20235;-75
2022/10/25 20:37:13;;;;;;;8.70;3.60;;;;;11.90;100813.00;;;;10255905;28;20228;-74
2022/10/25 20:42:16;;;;;;;7.33;3.00;;;;;11.90;100810.00;;;;10301394;28;20183;-74
2022/10/25 20:47:18;;;;;;;7.43;2.87;;;;;11.90;100807.00;;;;10291602;28;20259;-74
2022/10/25 20:52:20;;;;;;;7.77;2.87;;;;;11.90;100811.00;;;;10308165;28;20216;-74
2022/10/25 20:57:22;;;;;;;9.83;3.37;;;;;11.90;100810.00;;;;10292105;28;20214;-74
2022/10/25 21:02:24;;;;;;;10.03;2.93;;;;;12.00;100815.00;;;;10301068;28;20189;-74
2022/10/25 21:07:30;;;;;;;6.17;3.97;;;;;12.10;100813.00;;;;10323151;28;20265;-74
2022/10/25 21:12:32;;;;;;;7.73;3.20;;;;;12.10;100816.00;;;;10288831;28;20220;-74
2022/10/25 21:17:34;;;;;;;7.67;2.73;;;;;12.20;100818.00;;;;10287656;28;20200;-74
2022/10/25 21:22:39;;;;;;;7.23;3.70;;;;;12.30;100827.00;;;;10283955;28;20197;-74
2022/10/25 21:27:41;;;;;;;10.30;3.17;;;;;12.20;100832.00;;;;10296091;28;20242;-74
2022/10/25 21:32:43;;;;;;;8.50;2.77;;;;;12.20;100829.00;;;;10313232;28;20695;-74
2022/10/25 21:37:46;;;;;;;4.80;2.77;;;;;12.20;100818.00;;;;10303294;28;20188;-74
2022/10/25 21:42:50;;;;;;;7.87;2.50;;;;;12.30;100823.00;;;;10321800;28;20284;-75
2022/10/25 21:47:51;;;;;;;7.93;3.10;;;;;12.30;100820.00;;;;10285840;28;20192;-75
2022/10/25 21:52:53;;;;;;;6.80;2.73;;;;;12.30;100819.00;;;;10302944;28;20223;-74
2022/10/25 21:57:56;;;;;;;3.57;2.40;;;;;12.30;100824.00;;;;10314401;28;20559;-75
2022/10/25 22:02:58;;;;;;;7.83;2.63;;;;;12.30;100825.00;;;;10314315;28;20899;-75
2022/10/25 22:08:00;;;;;;;8.23;2.80;;;;;12.40;100818.00;;;;10308149;28;20220;-75
2022/10/25 22:13:02;;;;;;;5.00;2.87;;;;;12.50;100810.00;;;;10308318;28;20303;-74
2022/10/25 22:18:04;;;;;;;7.73;2.50;;;;;12.50;100807.00;;;;10303713;28;20228;-74
2022/10/25 22:23:06;;;;;;;10.37;3.23;;;;;12.60;100807.00;;;;10318924;28;20196;-74
2022/10/25 22:28:08;;;;;;;4.33;2.40;;;;;12.50;100798.00;;;;10305113;28;20255;-74
2022/10/25 22:33:10;;;;;;;8.30;2.83;;;;;12.50;100798.00;;;;10327970;28;20211;-74
2022/10/25 22:38:12;;;;;;;3.70;2.53;;;;;12.50;100795.00;;;;10307414;28;20246;-74
2022/10/25 22:43:14;;;;;;;8.13;2.40;;;;;12.50;100787.00;;;;10280524;28;20807;-74
2022/10/25 22:48:16;;;;;;;7.70;2.87;;;;;12.50;100777.00;;;;10272238;28;20223;-74
2022/10/25 22:53:20;;;;;;;8.20;3.70;;;;;12.60;100758.00;;;;10287807;28;20231;-74
2022/10/25 22:58:23;;;;;;;5.90;2.83;;;;;12.60;100753.00;;;;10305938;28;20197;-74
2022/10/25 23:03:25;;;;;;;4.40;2.30;;;;;12.70;100757.00;;;;10319325;28;20184;-74
2022/10/25 23:08:28;;;;;;;6.80;2.97;;;;;12.70;100744.00;;;;10296865;28;20231;-74
2022/10/25 23:13:33;;;;;;;7.07;2.57;;;;;12.70;100742.00;;;;10295768;28;20212;-74
2022/10/25 23:18:36;;;;;;;5.97;2.43;;;;;12.70;100737.00;;;;10329262;28;20184;-74
2022/10/25 23:23:38;;;;;;;10.77;2.87;;;;;12.80;100728.00;;;;10308171;28;20189;-74
2022/10/25 23:28:40;;;;;;;7.80;2.50;;;;;12.80;100727.00;;;;10328143;28;20678;-74
2022/10/25 23:33:44;;;;;;;3.70;2.23;;;;;12.90;100731.00;;;;10311916;28;20204;-74
2022/10/25 23:38:47;;;;;;;5.63;2.20;;;;;12.80;100710.00;;;;10331496;28;20711;-74
2022/10/25 23:43:49;;;;;;;4.07;1.73;;;;;12.80;100706.00;;;;10280261;28;20287;-74
2022/10/25 23:48:51;;;;;;;5.57;2.10;;;;;12.70;100703.00;;;;10307936;28;20200;-74
2022/10/25 23:53:53;;;;;;;6.80;3.30;;;;;12.70;100704.00;;;;10274795;28;20223;-74
2022/10/25 23:58:55;;;;;;;3.90;1.90;;;;;12.60;100703.00;;;;10320817;28;20203;-74
